sensor_id;sensor_type;location;lat;lon;timestamp;P1;durP1;ratioP1;P2;durP2;ratioP2
70729;SDS011;58315;53.336;55.932;2023-05-07T00:02:17;13.82;;;3.60;;
70729;SDS011;58315;53.336;55.932;2023-05-07T00:04:43;40.08;;;4.05;;
70729;SDS011;58315;53.336;55.932;2023-05-07T00:07:09;13.63;;;3.83;;
70729;SDS011;58315;53.336;55.932;2023-05-07T00:09:36;17.00;;;3.50;;
70729;SDS011;58315;53.336;55.932;2023-05-07T00:12:02;24.00;;;3.10;;
70729;SDS011;58315;53.336;55.932;2023-05-07T00:14:28;42.72;;;3.85;;
70729;SDS011;58315;53.336;55.932;2023-05-07T00:16:54;16.83;;;3.63;;
70729;SDS011;58315;53.336;55.932;2023-05-07T00:19:21;10.00;;;2.78;;
70729;SDS011;58315;53.336;55.932;2023-05-07T00:21:47;26.35;;;3.67;;
70729;SDS011;58315;53.336;55.932;2023-05-07T00:24:13;21.88;;;3.60;;
70729;SDS011;58315;53.336;55.932;2023-05-07T00:26:39;21.25;;;3.47;;
70729;SDS011;58315;53.336;55.932;2023-05-07T00:29:05;19.58;;;3.85;;
70729;SDS011;58315;53.336;55.932;2023-05-07T00:31:31;19.50;;;2.95;;
70729;SDS011;58315;53.336;55.932;2023-05-07T00:33:58;20.85;;;3.20;;
70729;SDS011;58315;53.336;55.932;2023-05-07T00:36:24;24.23;;;3.72;;
70729;SDS011;58315;53.336;55.932;2023-05-07T00:38:51;32.55;;;5.22;;
70729;SDS011;58315;53.336;55.932;2023-05-07T00:41:20;37.45;;;4.03;;
70729;SDS011;58315;53.336;55.932;2023-05-07T00:43:47;24.95;;;3.72;;
70729;SDS011;58315;53.336;55.932;2023-05-07T00:46:13;23.92;;;3.50;;
70729;SDS011;58315;53.336;55.932;2023-05-07T00:48:41;26.75;;;4.20;;
70729;SDS011;58315;53.336;55.932;2023-05-07T00:51:09;14.50;;;3.38;;
70729;SDS011;58315;53.336;55.932;2023-05-07T00:53:37;21.08;;;4.05;;
70729;SDS011;58315;53.336;55.932;2023-05-07T00:56:04;19.33;;;3.80;;
70729;SDS011;58315;53.336;55.932;2023-05-07T00:58:32;28.17;;;4.15;;
70729;SDS011;58315;53.336;55.932;2023-05-07T01:00:59;29.23;;;4.55;;
70729;SDS011;58315;53.336;55.932;2023-05-07T01:03:25;41.97;;;5.82;;
70729;SDS011;58315;53.336;55.932;2023-05-07T01:05:52;21.55;;;4.53;;
70729;SDS011;58315;53.336;55.932;2023-05-07T01:08:19;24.05;;;4.05;;
70729;SDS011;58315;53.336;55.932;2023-05-07T01:10:47;26.38;;;3.97;;
70729;SDS011;58315;53.336;55.932;2023-05-07T01:13:14;27.30;;;4.60;;
70729;SDS011;58315;53.336;55.932;2023-05-07T01:15:42;26.30;;;4.80;;
70729;SDS011;58315;53.336;55.932;2023-05-07T01:18:09;29.30;;;4.72;;
70729;SDS011;58315;53.336;55.932;2023-05-07T01:20:35;30.90;;;4.97;;
70729;SDS011;58315;53.336;55.932;2023-05-07T01:23:01;25.52;;;4.82;;
70729;SDS011;58315;53.336;55.932;2023-05-07T01:25:29;23.17;;;4.82;;
70729;SDS011;58315;53.336;55.932;2023-05-07T01:27:59;32.35;;;5.88;;
70729;SDS011;58315;53.336;55.932;2023-05-07T01:30:29;32.58;;;4.45;;
70729;SDS011;58315;53.336;55.932;2023-05-07T01:32:58;28.20;;;3.72;;
70729;SDS011;58315;53.336;55.932;2023-05-07T01:35:32;29.77;;;3.67;;
70729;SDS011;58315;53.336;55.932;2023-05-07T01:38:02;61.95;;;4.80;;
70729;SDS011;58315;53.336;55.932;2023-05-07T01:40:30;37.28;;;4.97;;
70729;SDS011;58315;53.336;55.932;2023-05-07T01:42:56;48.47;;;4.50;;
70729;SDS011;58315;53.336;55.932;2023-05-07T01:45:22;30.30;;;3.78;;
70729;SDS011;58315;53.336;55.932;2023-05-07T01:47:49;24.30;;;4.30;;
70729;SDS011;58315;53.336;55.932;2023-05-07T01:50:16;24.05;;;4.18;;
70729;SDS011;58315;53.336;55.932;2023-05-07T01:52:44;29.70;;;4.32;;
70729;SDS011;58315;53.336;55.932;2023-05-07T01:55:10;30.48;;;5.30;;
70729;SDS011;58315;53.336;55.932;2023-05-07T01:57:36;41.75;;;5.00;;
70729;SDS011;58315;53.336;55.932;2023-05-07T02:00:02;30.05;;;5.68;;
70729;SDS011;58315;53.336;55.932;2023-05-07T02:02:41;23.55;;;4.85;;
70729;SDS011;58315;53.336;55.932;2023-05-07T02:05:17;18.63;;;3.90;;
70729;SDS011;58315;53.336;55.932;2023-05-07T02:07:47;31.77;;;4.50;;
70729;SDS011;58315;53.336;55.932;2023-05-07T02:10:15;23.05;;;4.00;;
70729;SDS011;58315;53.336;55.932;2023-05-07T02:12:41;25.27;;;4.30;;
70729;SDS011;58315;53.336;55.932;2023-05-07T02:15:08;14.82;;;3.10;;
70729;SDS011;58315;53.336;55.932;2023-05-07T02:17:35;17.70;;;4.03;;
70729;SDS011;58315;53.336;55.932;2023-05-07T02:20:21;27.10;;;4.35;;
70729;SDS011;58315;53.336;55.932;2023-05-07T02:23:07;14.60;;;3.50;;
70729;SDS011;58315;53.336;55.932;2023-05-07T02:25:33;25.15;;;3.85;;
70729;SDS011;58315;53.336;55.932;2023-05-07T02:28:00;28.88;;;4.60;;
70729;SDS011;58315;53.336;55.932;2023-05-07T02:30:44;19.02;;;4.43;;
70729;SDS011;58315;53.336;55.932;2023-05-07T02:33:11;25.33;;;3.63;;
70729;SDS011;58315;53.336;55.932;2023-05-07T02:35:39;29.83;;;4.63;;
70729;SDS011;58315;53.336;55.932;2023-05-07T02:38:06;29.67;;;4.50;;
70729;SDS011;58315;53.336;55.932;2023-05-07T02:40:37;24.90;;;3.67;;
70729;SDS011;58315;53.336;55.932;2023-05-07T02:43:06;25.83;;;3.83;;
70729;SDS011;58315;53.336;55.932;2023-05-07T02:45:32;30.65;;;4.63;;
70729;SDS011;58315;53.336;55.932;2023-05-07T02:48:00;16.40;;;4.25;;
70729;SDS011;58315;53.336;55.932;2023-05-07T02:50:26;24.80;;;4.45;;
70729;SDS011;58315;53.336;55.932;2023-05-07T02:52:53;23.75;;;4.28;;
70729;SDS011;58315;53.336;55.932;2023-05-07T02:55:20;27.75;;;4.57;;
70729;SDS011;58315;53.336;55.932;2023-05-07T02:57:46;23.83;;;4.25;;
70729;SDS011;58315;53.336;55.932;2023-05-07T03:00:16;23.85;;;4.05;;
70729;SDS011;58315;53.336;55.932;2023-05-07T03:03:02;22.95;;;3.92;;
70729;SDS011;58315;53.336;55.932;2023-05-07T03:05:28;20.30;;;3.60;;
70729;SDS011;58315;53.336;55.932;2023-05-07T03:07:54;25.38;;;4.80;;
70729;SDS011;58315;53.336;55.932;2023-05-07T03:10:20;18.10;;;3.78;;
70729;SDS011;58315;53.336;55.932;2023-05-07T03:12:47;20.65;;;4.10;;
70729;SDS011;58315;53.336;55.932;2023-05-07T03:15:16;27.80;;;4.22;;
70729;SDS011;58315;53.336;55.932;2023-05-07T03:17:42;29.90;;;4.15;;
70729;SDS011;58315;53.336;55.932;2023-05-07T03:20:08;30.00;;;4.10;;
70729;SDS011;58315;53.336;55.932;2023-05-07T03:22:36;25.30;;;4.20;;
70729;SDS011;58315;53.336;55.932;2023-05-07T03:25:02;26.35;;;3.78;;
70729;SDS011;58315;53.336;55.932;2023-05-07T03:27:35;29.00;;;3.83;;
70729;SDS011;58315;53.336;55.932;2023-05-07T03:30:01;27.85;;;4.38;;
70729;SDS011;58315;53.336;55.932;2023-05-07T03:32:31;20.13;;;4.87;;
70729;SDS011;58315;53.336;55.932;2023-05-07T03:34:57;28.80;;;4.45;;
70729;SDS011;58315;53.336;55.932;2023-05-07T03:37:23;36.80;;;3.85;;
70729;SDS011;58315;53.336;55.932;2023-05-07T03:39:49;28.25;;;4.03;;
70729;SDS011;58315;53.336;55.932;2023-05-07T03:42:16;24.13;;;4.10;;
70729;SDS011;58315;53.336;55.932;2023-05-07T03:44:43;24.27;;;5.20;;
70729;SDS011;58315;53.336;55.932;2023-05-07T03:47:09;25.73;;;4.40;;
70729;SDS011;58315;53.336;55.932;2023-05-07T03:49:36;28.77;;;5.07;;
70729;SDS011;58315;53.336;55.932;2023-05-07T03:52:02;29.15;;;4.35;;
70729;SDS011;58315;53.336;55.932;2023-05-07T03:54:30;29.67;;;3.92;;
70729;SDS011;58315;53.336;55.932;2023-05-07T03:56:56;24.30;;;4.28;;
70729;SDS011;58315;53.336;55.932;2023-05-07T03:59:23;27.63;;;3.88;;
70729;SDS011;58315;53.336;55.932;2023-05-07T04:01:49;22.05;;;3.88;;
70729;SDS011;58315;53.336;55.932;2023-05-07T04:04:17;15.10;;;3.55;;
70729;SDS011;58315;53.336;55.932;2023-05-07T04:06:44;22.17;;;4.50;;
70729;SDS011;58315;53.336;55.932;2023-05-07T04:09:10;19.30;;;3.70;;
70729;SDS011;58315;53.336;55.932;2023-05-07T04:11:37;22.10;;;4.15;;
70729;SDS011;58315;53.336;55.932;2023-05-07T04:14:07;20.50;;;3.75;;
70729;SDS011;58315;53.336;55.932;2023-05-07T04:16:34;26.10;;;3.45;;
70729;SDS011;58315;53.336;55.932;2023-05-07T04:19:01;19.35;;;4.50;;
70729;SDS011;58315;53.336;55.932;2023-05-07T04:21:27;26.65;;;4.60;;
70729;SDS011;58315;53.336;55.932;2023-05-07T04:23:55;34.22;;;5.28;;
70729;SDS011;58315;53.336;55.932;2023-05-07T04:26:21;34.33;;;5.47;;
70729;SDS011;58315;53.336;55.932;2023-05-07T04:28:47;26.67;;;5.75;;
70729;SDS011;58315;53.336;55.932;2023-05-07T04:31:14;20.92;;;6.50;;
70729;SDS011;58315;53.336;55.932;2023-05-07T04:33:41;27.23;;;6.50;;
70729;SDS011;58315;53.336;55.932;2023-05-07T04:36:10;31.25;;;6.43;;
70729;SDS011;58315;53.336;55.932;2023-05-07T04:38:44;22.33;;;6.18;;
70729;SDS011;58315;53.336;55.932;2023-05-07T04:41:12;26.05;;;6.68;;
70729;SDS011;58315;53.336;55.932;2023-05-07T04:43:42;24.05;;;6.00;;
70729;SDS011;58315;53.336;55.932;2023-05-07T04:46:10;25.88;;;5.82;;
70729;SDS011;58315;53.336;55.932;2023-05-07T04:48:37;20.23;;;5.70;;
70729;SDS011;58315;53.336;55.932;2023-05-07T04:51:04;28.92;;;6.50;;
70729;SDS011;58315;53.336;55.932;2023-05-07T04:53:31;27.83;;;6.45;;
70729;SDS011;58315;53.336;55.932;2023-05-07T04:55:57;27.33;;;4.90;;
70729;SDS011;58315;53.336;55.932;2023-05-07T04:58:26;17.02;;;3.85;;
70729;SDS011;58315;53.336;55.932;2023-05-07T05:00:53;17.90;;;3.25;;
70729;SDS011;58315;53.336;55.932;2023-05-07T05:03:19;12.27;;;2.58;;
70729;SDS011;58315;53.336;55.932;2023-05-07T05:05:45;16.45;;;2.20;;
70729;SDS011;58315;53.336;55.932;2023-05-07T05:08:11;20.27;;;2.40;;
70729;SDS011;58315;53.336;55.932;2023-05-07T05:10:41;26.98;;;2.55;;
70729;SDS011;58315;53.336;55.932;2023-05-07T05:13:08;163.20;;;6.20;;
70729;SDS011;58315;53.336;55.932;2023-05-07T05:15:35;20.25;;;1.88;;
70729;SDS011;58315;53.336;55.932;2023-05-07T05:18:02;31.60;;;1.70;;
70729;SDS011;58315;53.336;55.932;2023-05-07T05:20:29;7.88;;;1.65;;
70729;SDS011;58315;53.336;55.932;2023-05-07T05:22:55;113.72;;;7.30;;
70729;SDS011;58315;53.336;55.932;2023-05-07T05:25:21;22.63;;;2.70;;
70729;SDS011;58315;53.336;55.932;2023-05-07T05:27:48;14.07;;;2.03;;
70729;SDS011;58315;53.336;55.932;2023-05-07T05:30:14;20.98;;;1.90;;
70729;SDS011;58315;53.336;55.932;2023-05-07T05:32:43;37.22;;;1.90;;
70729;SDS011;58315;53.336;55.932;2023-05-07T05:35:09;15.60;;;1.55;;
70729;SDS011;58315;53.336;55.932;2023-05-07T05:37:35;8.18;;;1.80;;
70729;SDS011;58315;53.336;55.932;2023-05-07T05:40:04;36.40;;;2.42;;
70729;SDS011;58315;53.336;55.932;2023-05-07T05:42:32;18.98;;;1.60;;
70729;SDS011;58315;53.336;55.932;2023-05-07T05:44:57;24.25;;;2.20;;
70729;SDS011;58315;53.336;55.932;2023-05-07T05:47:24;10.65;;;1.95;;
70729;SDS011;58315;53.336;55.932;2023-05-07T05:49:53;12.80;;;1.40;;
70729;SDS011;58315;53.336;55.932;2023-05-07T05:52:19;16.55;;;2.42;;
70729;SDS011;58315;53.336;55.932;2023-05-07T05:54:49;5.95;;;1.92;;
70729;SDS011;58315;53.336;55.932;2023-05-07T05:57:16;4.05;;;1.63;;
70729;SDS011;58315;53.336;55.932;2023-05-07T05:59:44;5.55;;;1.70;;
70729;SDS011;58315;53.336;55.932;2023-05-07T06:02:10;10.02;;;1.80;;
70729;SDS011;58315;53.336;55.932;2023-05-07T06:04:37;7.13;;;1.90;;
70729;SDS011;58315;53.336;55.932;2023-05-07T06:07:04;6.10;;;1.95;;
70729;SDS011;58315;53.336;55.932;2023-05-07T06:09:30;12.43;;;2.45;;
70729;SDS011;58315;53.336;55.932;2023-05-07T06:11:56;7.07;;;2.20;;
70729;SDS011;58315;53.336;55.932;2023-05-07T06:14:22;7.05;;;1.85;;
70729;SDS011;58315;53.336;55.932;2023-05-07T06:16:48;11.15;;;2.00;;
70729;SDS011;58315;53.336;55.932;2023-05-07T06:19:15;10.00;;;1.63;;
70729;SDS011;58315;53.336;55.932;2023-05-07T06:21:44;11.40;;;1.70;;
70729;SDS011;58315;53.336;55.932;2023-05-07T06:24:10;6.35;;;1.35;;
70729;SDS011;58315;53.336;55.932;2023-05-07T06:26:38;4.90;;;1.00;;
70729;SDS011;58315;53.336;55.932;2023-05-07T06:29:04;6.93;;;2.20;;
70729;SDS011;58315;53.336;55.932;2023-05-07T06:31:30;6.85;;;1.52;;
70729;SDS011;58315;53.336;55.932;2023-05-07T06:34:03;5.45;;;1.38;;
70729;SDS011;58315;53.336;55.932;2023-05-07T06:36:37;3.65;;;1.30;;
70729;SDS011;58315;53.336;55.932;2023-05-07T06:39:12;5.03;;;1.60;;
70729;SDS011;58315;53.336;55.932;2023-05-07T06:41:41;10.35;;;1.75;;
70729;SDS011;58315;53.336;55.932;2023-05-07T06:44:16;6.85;;;1.75;;
70729;SDS011;58315;53.336;55.932;2023-05-07T06:46:58;8.07;;;2.58;;
70729;SDS011;58315;53.336;55.932;2023-05-07T06:49:24;6.78;;;1.27;;
70729;SDS011;58315;53.336;55.932;2023-05-07T06:51:50;14.20;;;1.40;;
70729;SDS011;58315;53.336;55.932;2023-05-07T06:54:17;10.20;;;1.65;;
70729;SDS011;58315;53.336;55.932;2023-05-07T06:56:44;6.70;;;2.00;;
70729;SDS011;58315;53.336;55.932;2023-05-07T06:59:10;6.05;;;2.10;;
70729;SDS011;58315;53.336;55.932;2023-05-07T07:01:39;6.32;;;1.75;;
70729;SDS011;58315;53.336;55.932;2023-05-07T07:04:07;7.28;;;1.50;;
70729;SDS011;58315;53.336;55.932;2023-05-07T07:06:33;2.97;;;1.48;;
70729;SDS011;58315;53.336;55.932;2023-05-07T07:09:02;11.07;;;2.20;;
70729;SDS011;58315;53.336;55.932;2023-05-07T07:11:29;8.30;;;1.60;;
70729;SDS011;58315;53.336;55.932;2023-05-07T07:13:56;7.97;;;2.00;;
70729;SDS011;58315;53.336;55.932;2023-05-07T07:16:22;6.00;;;1.50;;
70729;SDS011;58315;53.336;55.932;2023-05-07T07:18:50;8.52;;;1.75;;
70729;SDS011;58315;53.336;55.932;2023-05-07T07:21:17;6.68;;;2.38;;
70729;SDS011;58315;53.336;55.932;2023-05-07T07:23:43;5.72;;;2.28;;
70729;SDS011;58315;53.336;55.932;2023-05-07T07:26:09;4.13;;;2.50;;
70729;SDS011;58315;53.336;55.932;2023-05-07T07:28:41;11.13;;;2.60;;
70729;SDS011;58315;53.336;55.932;2023-05-07T07:31:08;15.10;;;2.20;;
70729;SDS011;58315;53.336;55.932;2023-05-07T07:33:34;6.57;;;1.85;;
70729;SDS011;58315;53.336;55.932;2023-05-07T07:36:00;3.10;;;1.40;;
70729;SDS011;58315;53.336;55.932;2023-05-07T07:38:26;3.50;;;1.40;;
70729;SDS011;58315;53.336;55.932;2023-05-07T07:40:52;5.78;;;1.50;;
70729;SDS011;58315;53.336;55.932;2023-05-07T07:43:18;2.90;;;1.20;;
70729;SDS011;58315;53.336;55.932;2023-05-07T07:45:45;2.97;;;1.17;;
70729;SDS011;58315;53.336;55.932;2023-05-07T07:48:11;3.05;;;1.23;;
70729;SDS011;58315;53.336;55.932;2023-05-07T07:50:38;2.22;;;1.15;;
70729;SDS011;58315;53.336;55.932;2023-05-07T07:53:05;2.05;;;1.00;;
70729;SDS011;58315;53.336;55.932;2023-05-07T07:55:32;9.00;;;1.60;;
70729;SDS011;58315;53.336;55.932;2023-05-07T07:57:59;1.83;;;1.10;;
70729;SDS011;58315;53.336;55.932;2023-05-07T08:00:26;2.22;;;1.33;;
70729;SDS011;58315;53.336;55.932;2023-05-07T08:02:55;2.92;;;1.30;;
70729;SDS011;58315;53.336;55.932;2023-05-07T08:05:26;2.85;;;1.42;;
70729;SDS011;58315;53.336;55.932;2023-05-07T08:07:52;7.80;;;1.73;;
70729;SDS011;58315;53.336;55.932;2023-05-07T08:10:24;3.60;;;1.30;;
70729;SDS011;58315;53.336;55.932;2023-05-07T08:12:56;9.77;;;2.25;;
70729;SDS011;58315;53.336;55.932;2023-05-07T08:15:22;6.93;;;1.90;;
70729;SDS011;58315;53.336;55.932;2023-05-07T08:17:49;5.15;;;2.15;;
70729;SDS011;58315;53.336;55.932;2023-05-07T08:20:23;4.80;;;1.45;;
70729;SDS011;58315;53.336;55.932;2023-05-07T08:22:50;2.60;;;1.50;;
70729;SDS011;58315;53.336;55.932;2023-05-07T08:25:17;6.55;;;1.58;;
70729;SDS011;58315;53.336;55.932;2023-05-07T08:27:45;2.95;;;1.30;;
70729;SDS011;58315;53.336;55.932;2023-05-07T08:30:12;2.83;;;1.60;;
70729;SDS011;58315;53.336;55.932;2023-05-07T08:32:39;4.65;;;2.58;;
70729;SDS011;58315;53.336;55.932;2023-05-07T08:35:05;4.05;;;1.85;;
70729;SDS011;58315;53.336;55.932;2023-05-07T08:37:32;3.58;;;1.80;;
70729;SDS011;58315;53.336;55.932;2023-05-07T08:39:58;5.40;;;1.90;;
70729;SDS011;58315;53.336;55.932;2023-05-07T08:42:29;5.25;;;1.90;;
70729;SDS011;58315;53.336;55.932;2023-05-07T08:44:57;2.08;;;1.30;;
70729;SDS011;58315;53.336;55.932;2023-05-07T08:47:33;3.53;;;1.40;;
70729;SDS011;58315;53.336;55.932;2023-05-07T08:50:04;2.90;;;1.38;;
70729;SDS011;58315;53.336;55.932;2023-05-07T08:52:32;2.10;;;1.20;;
70729;SDS011;58315;53.336;55.932;2023-05-07T08:54:59;2.22;;;1.10;;
70729;SDS011;58315;53.336;55.932;2023-05-07T08:57:26;2.28;;;1.50;;
70729;SDS011;58315;53.336;55.932;2023-05-07T08:59:53;1.48;;;1.00;;
70729;SDS011;58315;53.336;55.932;2023-05-07T09:02:19;2.25;;;1.38;;
70729;SDS011;58315;53.336;55.932;2023-05-07T09:04:45;2.55;;;1.60;;
70729;SDS011;58315;53.336;55.932;2023-05-07T09:07:11;4.65;;;2.17;;
70729;SDS011;58315;53.336;55.932;2023-05-07T09:09:41;2.70;;;1.50;;
70729;SDS011;58315;53.336;55.932;2023-05-07T09:12:10;3.70;;;1.17;;
70729;SDS011;58315;53.336;55.932;2023-05-07T09:14:36;1.52;;;1.02;;
70729;SDS011;58315;53.336;55.932;2023-05-07T09:17:03;2.17;;;1.15;;
70729;SDS011;58315;53.336;55.932;2023-05-07T09:19:29;1.90;;;1.20;;
70729;SDS011;58315;53.336;55.932;2023-05-07T09:21:59;3.40;;;1.45;;
70729;SDS011;58315;53.336;55.932;2023-05-07T09:24:27;2.80;;;1.60;;
70729;SDS011;58315;53.336;55.932;2023-05-07T09:27:02;9.15;;;2.30;;
70729;SDS011;58315;53.336;55.932;2023-05-07T09:29:30;7.00;;;1.90;;
70729;SDS011;58315;53.336;55.932;2023-05-07T09:32:03;6.50;;;2.70;;
70729;SDS011;58315;53.336;55.932;2023-05-07T09:34:34;6.35;;;2.63;;
70729;SDS011;58315;53.336;55.932;2023-05-07T09:37:01;4.50;;;1.20;;
70729;SDS011;58315;53.336;55.932;2023-05-07T09:39:49;1.75;;;0.95;;
70729;SDS011;58315;53.336;55.932;2023-05-07T09:42:23;1.77;;;0.98;;
70729;SDS011;58315;53.336;55.932;2023-05-07T09:44:51;4.28;;;1.30;;
70729;SDS011;58315;53.336;55.932;2023-05-07T09:47:22;2.55;;;1.13;;
70729;SDS011;58315;53.336;55.932;2023-05-07T09:49:53;2.50;;;1.13;;
70729;SDS011;58315;53.336;55.932;2023-05-07T09:52:24;2.70;;;1.30;;
70729;SDS011;58315;53.336;55.932;2023-05-07T09:54:55;3.65;;;0.98;;
70729;SDS011;58315;53.336;55.932;2023-05-07T09:57:27;4.78;;;0.98;;
70729;SDS011;58315;53.336;55.932;2023-05-07T09:59:59;1.92;;;0.60;;
70729;SDS011;58315;53.336;55.932;2023-05-07T10:02:32;2.25;;;1.08;;
70729;SDS011;58315;53.336;55.932;2023-05-07T10:05:02;2.08;;;0.88;;
70729;SDS011;58315;53.336;55.932;2023-05-07T10:07:32;1.17;;;0.57;;
70729;SDS011;58315;53.336;55.932;2023-05-07T10:10:05;1.17;;;0.80;;
70729;SDS011;58315;53.336;55.932;2023-05-07T10:12:36;1.90;;;0.93;;
70729;SDS011;58315;53.336;55.932;2023-05-07T10:15:09;1.48;;;0.80;;
70729;SDS011;58315;53.336;55.932;2023-05-07T10:17:39;3.17;;;0.87;;
70729;SDS011;58315;53.336;55.932;2023-05-07T10:20:07;6.88;;;1.20;;
70729;SDS011;58315;53.336;55.932;2023-05-07T10:22:41;3.53;;;1.40;;
70729;SDS011;58315;53.336;55.932;2023-05-07T10:25:22;2.17;;;1.20;;
70729;SDS011;58315;53.336;55.932;2023-05-07T10:27:52;1.17;;;0.82;;
70729;SDS011;58315;53.336;55.932;2023-05-07T10:33:10;2.50;;;0.70;;
70729;SDS011;58315;53.336;55.932;2023-05-07T10:35:43;1.52;;;0.88;;
70729;SDS011;58315;53.336;55.932;2023-05-07T10:38:13;2.25;;;0.98;;
70729;SDS011;58315;53.336;55.932;2023-05-07T10:40:43;1.50;;;0.60;;
70729;SDS011;58315;53.336;55.932;2023-05-07T10:43:09;1.83;;;0.73;;
70729;SDS011;58315;53.336;55.932;2023-05-07T10:45:43;2.08;;;0.68;;
70729;SDS011;58315;53.336;55.932;2023-05-07T10:48:30;1.92;;;1.00;;
70729;SDS011;58315;53.336;55.932;2023-05-07T10:51:24;1.30;;;0.70;;
70729;SDS011;58315;53.336;55.932;2023-05-07T10:56:52;1.10;;;0.73;;
70729;SDS011;58315;53.336;55.932;2023-05-07T10:59:30;1.73;;;0.85;;
70729;SDS011;58315;53.336;55.932;2023-05-07T11:02:02;2.95;;;1.10;;
70729;SDS011;58315;53.336;55.932;2023-05-07T11:08:08;3.20;;;1.52;;
70729;SDS011;58315;53.336;55.932;2023-05-07T11:10:53;3.50;;;1.60;;
70729;SDS011;58315;53.336;55.932;2023-05-07T11:13:44;4.10;;;2.00;;
70729;SDS011;58315;53.336;55.932;2023-05-07T11:16:25;3.95;;;1.77;;
70729;SDS011;58315;53.336;55.932;2023-05-07T11:19:06;4.90;;;1.88;;
70729;SDS011;58315;53.336;55.932;2023-05-07T11:21:38;7.75;;;2.22;;
70729;SDS011;58315;53.336;55.932;2023-05-07T11:24:24;5.88;;;2.25;;
70729;SDS011;58315;53.336;55.932;2023-05-07T11:27:01;6.72;;;1.90;;
70729;SDS011;58315;53.336;55.932;2023-05-07T11:29:29;6.78;;;2.55;;
70729;SDS011;58315;53.336;55.932;2023-05-07T11:32:06;6.80;;;2.10;;
70729;SDS011;58315;53.336;55.932;2023-05-07T11:34:42;5.97;;;2.45;;
70729;SDS011;58315;53.336;55.932;2023-05-07T11:37:10;5.97;;;1.80;;
70729;SDS011;58315;53.336;55.932;2023-05-07T11:39:45;13.38;;;2.00;;
70729;SDS011;58315;53.336;55.932;2023-05-07T11:42:32;2.10;;;1.30;;
70729;SDS011;58315;53.336;55.932;2023-05-07T11:45:03;3.75;;;1.73;;
70729;SDS011;58315;53.336;55.932;2023-05-07T11:47:32;6.68;;;1.88;;
70729;SDS011;58315;53.336;55.932;2023-05-07T11:50:06;5.15;;;1.58;;
70729;SDS011;58315;53.336;55.932;2023-05-07T11:52:35;6.20;;;1.35;;
70729;SDS011;58315;53.336;55.932;2023-05-07T11:55:01;3.08;;;1.38;;
70729;SDS011;58315;53.336;55.932;2023-05-07T11:57:32;3.97;;;1.10;;
70729;SDS011;58315;53.336;55.932;2023-05-07T12:00:00;2.78;;;1.33;;
70729;SDS011;58315;53.336;55.932;2023-05-07T12:02:39;6.63;;;1.40;;
70729;SDS011;58315;53.336;55.932;2023-05-07T12:05:05;7.70;;;1.30;;
70729;SDS011;58315;53.336;55.932;2023-05-07T12:07:35;4.28;;;1.55;;
70729;SDS011;58315;53.336;55.932;2023-05-07T12:10:04;1.90;;;1.15;;
70729;SDS011;58315;53.336;55.932;2023-05-07T12:12:37;2.40;;;1.40;;
70729;SDS011;58315;53.336;55.932;2023-05-07T12:15:04;2.35;;;1.35;;
70729;SDS011;58315;53.336;55.932;2023-05-07T12:17:33;3.10;;;1.38;;
70729;SDS011;58315;53.336;55.932;2023-05-07T12:20:03;1.60;;;1.00;;
70729;SDS011;58315;53.336;55.932;2023-05-07T12:22:30;4.90;;;1.45;;
70729;SDS011;58315;53.336;55.932;2023-05-07T12:24:57;2.85;;;1.40;;
70729;SDS011;58315;53.336;55.932;2023-05-07T12:27:25;2.33;;;1.05;;
70729;SDS011;58315;53.336;55.932;2023-05-07T12:29:51;5.25;;;1.00;;
70729;SDS011;58315;53.336;55.932;2023-05-07T12:32:18;1.80;;;1.30;;
70729;SDS011;58315;53.336;55.932;2023-05-07T12:34:49;3.80;;;1.55;;
70729;SDS011;58315;53.336;55.932;2023-05-07T12:37:22;2.20;;;1.40;;
70729;SDS011;58315;53.336;55.932;2023-05-07T12:39:50;3.92;;;1.60;;
70729;SDS011;58315;53.336;55.932;2023-05-07T12:42:35;2.60;;;1.33;;
70729;SDS011;58315;53.336;55.932;2023-05-07T12:47:37;2.95;;;1.50;;
70729;SDS011;58315;53.336;55.932;2023-05-07T12:50:06;4.70;;;1.70;;
70729;SDS011;58315;53.336;55.932;2023-05-07T12:52:33;6.60;;;1.93;;
70729;SDS011;58315;53.336;55.932;2023-05-07T12:55:06;4.63;;;1.60;;
70729;SDS011;58315;53.336;55.932;2023-05-07T12:57:40;4.18;;;1.83;;
70729;SDS011;58315;53.336;55.932;2023-05-07T13:00:07;7.75;;;2.10;;
70729;SDS011;58315;53.336;55.932;2023-05-07T13:02:38;5.00;;;1.77;;
70729;SDS011;58315;53.336;55.932;2023-05-07T13:05:05;4.63;;;2.00;;
70729;SDS011;58315;53.336;55.932;2023-05-07T13:07:31;5.35;;;1.98;;
70729;SDS011;58315;53.336;55.932;2023-05-07T13:09:57;3.92;;;2.10;;
70729;SDS011;58315;53.336;55.932;2023-05-07T13:12:23;4.20;;;2.13;;
70729;SDS011;58315;53.336;55.932;2023-05-07T13:14:49;6.07;;;1.80;;
70729;SDS011;58315;53.336;55.932;2023-05-07T13:17:15;4.45;;;2.47;;
70729;SDS011;58315;53.336;55.932;2023-05-07T13:19:41;7.18;;;2.40;;
70729;SDS011;58315;53.336;55.932;2023-05-07T13:22:07;9.10;;;2.70;;
70729;SDS011;58315;53.336;55.932;2023-05-07T13:24:33;5.93;;;2.63;;
70729;SDS011;58315;53.336;55.932;2023-05-07T13:27:00;4.53;;;2.30;;
70729;SDS011;58315;53.336;55.932;2023-05-07T13:29:26;7.75;;;2.65;;
70729;SDS011;58315;53.336;55.932;2023-05-07T13:31:58;5.45;;;2.65;;
70729;SDS011;58315;53.336;55.932;2023-05-07T13:34:25;4.80;;;2.37;;
70729;SDS011;58315;53.336;55.932;2023-05-07T13:36:51;5.25;;;2.53;;
70729;SDS011;58315;53.336;55.932;2023-05-07T13:39:17;7.68;;;3.28;;
70729;SDS011;58315;53.336;55.932;2023-05-07T13:41:43;4.97;;;2.67;;
70729;SDS011;58315;53.336;55.932;2023-05-07T13:44:09;5.40;;;2.38;;
70729;SDS011;58315;53.336;55.932;2023-05-07T13:46:35;7.28;;;3.00;;
70729;SDS011;58315;53.336;55.932;2023-05-07T13:49:04;8.43;;;3.08;;
70729;SDS011;58315;53.336;55.932;2023-05-07T13:51:31;7.47;;;2.78;;
70729;SDS011;58315;53.336;55.932;2023-05-07T13:53:57;4.85;;;2.33;;
70729;SDS011;58315;53.336;55.932;2023-05-07T13:56:24;4.28;;;2.40;;
70729;SDS011;58315;53.336;55.932;2023-05-07T13:58:50;14.23;;;2.95;;
70729;SDS011;58315;53.336;55.932;2023-05-07T14:01:16;11.70;;;2.85;;
70729;SDS011;58315;53.336;55.932;2023-05-07T14:03:42;6.07;;;2.60;;
70729;SDS011;58315;53.336;55.932;2023-05-07T14:06:08;7.68;;;3.13;;
70729;SDS011;58315;53.336;55.932;2023-05-07T14:08:34;6.80;;;3.25;;
70729;SDS011;58315;53.336;55.932;2023-05-07T14:11:00;7.78;;;2.90;;
70729;SDS011;58315;53.336;55.932;2023-05-07T14:13:26;5.13;;;2.80;;
70729;SDS011;58315;53.336;55.932;2023-05-07T14:15:52;7.35;;;3.55;;
70729;SDS011;58315;53.336;55.932;2023-05-07T14:18:18;8.05;;;3.30;;
70729;SDS011;58315;53.336;55.932;2023-05-07T14:20:44;11.60;;;3.45;;
70729;SDS011;58315;53.336;55.932;2023-05-07T14:23:12;5.60;;;3.17;;
70729;SDS011;58315;53.336;55.932;2023-05-07T14:25:38;6.65;;;3.00;;
70729;SDS011;58315;53.336;55.932;2023-05-07T14:28:04;17.35;;;4.20;;
70729;SDS011;58315;53.336;55.932;2023-05-07T14:30:30;10.30;;;4.35;;
70729;SDS011;58315;53.336;55.932;2023-05-07T14:32:56;15.45;;;5.10;;
70729;SDS011;58315;53.336;55.932;2023-05-07T14:35:23;12.73;;;4.40;;
70729;SDS011;58315;53.336;55.932;2023-05-07T14:37:49;8.73;;;4.05;;
70729;SDS011;58315;53.336;55.932;2023-05-07T14:40:15;9.23;;;3.80;;
70729;SDS011;58315;53.336;55.932;2023-05-07T14:42:42;11.05;;;3.95;;
70729;SDS011;58315;53.336;55.932;2023-05-07T14:45:08;15.00;;;5.32;;
70729;SDS011;58315;53.336;55.932;2023-05-07T14:47:35;12.45;;;3.97;;
70729;SDS011;58315;53.336;55.932;2023-05-07T14:50:01;31.02;;;5.38;;